Time,TemperatureF,DewpointF,PressureIn,WindDirection,WindDirectionDegrees,WindSpeedMPH,WindSpeedGustMPH,Humidity,HourlyPrecipIn,Conditions,Clouds,dailyrainin,SoftwareType,DateUTC
2013-11-13 00:09:00,22.0,18.0,30.75,SW,219,0.0,0.0,83,0.00,,,0.00,weatherlink.com 1.10,2013-11-13 06:09:00,
2013-11-13 00:24:00,21.6,17.0,30.75,SW,218,0.0,0.0,83,0.00,,,0.00,weatherlink.com 1.10,2013-11-13 06:24:00,
2013-11-13 00:39:00,21.1,17.0,30.75,SW,218,0.0,0.0,84,0.00,,,0.00,weatherlink.com 1.10,2013-11-13 06:39:00,
2013-11-13 00:54:00,21.1,17.0,30.75,SSE,155,0.0,1.0,85,0.00,,,0.00,weatherlink.com 1.10,2013-11-13 06:54:00,
2013-11-13 01:09:00,20.8,17.0,30.75,SSE,150,0.0,1.0,86,0.00,,,0.00,weatherlink.com 1.10,2013-11-13 07:09:00,
2013-11-13 01:25:00,20.5,17.0,30.75,SSE,151,0.0,1.0,87,0.00,,,0.00,weatherlink.com 1.10,2013-11-13 07:25:00,
2013-11-13 01:40:00,20.4,17.0,30.75,South,182,0.0,1.0,87,0.00,,,0.00,weatherlink.com 1.10,2013-11-13 07:40:00,
2013-11-13 01:55:00,20.5,17.0,30.76,SSE,161,0.0,1.0,87,0.00,,,0.00,weatherlink.com 1.10,2013-11-13 07:55:00,
2013-11-13 02:10:00,20.2,17.0,30.76,South,171,0.0,0.0,87,0.00,,,0.00,weatherlink.com 1.10,2013-11-13 08:10:00,
2013-11-13 02:25:00,19.6,16.0,30.75,South,171,0.0,0.0,87,0.00,,,0.00,weatherlink.com 1.10,2013-11-13 08:25:00,
2013-11-13 02:40:00,19.3,16.0,30.75,South,171,0.0,0.0,88,0.00,,,0.00,weatherlink.com 1.10,2013-11-13 08:40:00,
2013-11-13 02:55:00,19.3,17.0,30.75,SSE,157,0.0,0.0,89,0.00,,,0.00,weatherlink.com 1.10,2013-11-13 08:55:00,
2013-11-13 03:10:00,19.1,16.0,30.75,South,176,0.0,0.0,89,0.00,,,0.00,weatherlink.com 1.10,2013-11-13 09:10:00,
2013-11-13 03:25:00,18.9,16.0,30.75,South,176,0.0,0.0,89,0.00,,,0.00,weatherlink.com 1.10,2013-11-13 09:25:00,
2013-11-13 03:40:00,18.6,16.0,30.75,SW,234,0.0,1.0,89,0.00,,,0.00,weatherlink.com 1.10,2013-11-13 09:40:00,
2013-11-13 03:55:00,18.5,16.0,30.74,SW,226,0.0,0.0,89,0.00,,,0.00,weatherlink.com 1.10,2013-11-13 09:55:00,
2013-11-13 04:10:00,18.4,16.0,30.75,SW,226,0.0,0.0,90,0.00,,,0.00,weatherlink.com 1.10,2013-11-13 10:10:00,
2013-11-13 04:25:00,18.1,16.0,30.75,SW,227,0.0,0.0,90,0.00,,,0.00,weatherlink.com 1.10,2013-11-13 10:25:00,
2013-11-13 04:40:00,18.1,16.0,30.75,SW,223,0.0,0.0,91,0.00,,,0.00,weatherlink.com 1.10,2013-11-13 10:40:00,
2013-11-13 04:55:00,18.1,16.0,30.74,South,172,0.0,0.0,91,0.00,,,0.00,weatherlink.com 1.10,2013-11-13 10:55:00,
2013-11-13 05:10:00,17.9,16.0,30.74,South,173,0.0,0.0,91,0.00,,,0.00,weatherlink.com 1.10,2013-11-13 11:10:00,
2013-11-13 05:25:00,17.7,16.0,30.74,South,172,0.0,0.0,91,0.00,,,0.00,weatherlink.com 1.10,2013-11-13 11:25:00,
2013-11-13 05:40:00,17.3,15.0,30.73,South,172,0.0,0.0,91,0.00,,,0.00,weatherlink.com 1.10,2013-11-13 11:40:00,
2013-11-13 05:55:00,17.1,15.0,30.74,South,172,0.0,0.0,92,0.00,,,0.00,weatherlink.com 1.10,2013-11-13 11:55:00,
2013-11-13 06:10:00,17.1,15.0,30.73,South,172,0.0,0.0,92,0.00,,,0.00,weatherlink.com 1.10,2013-11-13 12:10:00,
2013-11-13 06:25:00,17.2,15.0,30.73,South,173,0.0,0.0,92,0.00,,,0.00,weatherlink.com 1.10,2013-11-13 12:25:00,
2013-11-13 06:40:00,16.8,15.0,30.73,South,173,0.0,0.0,92,0.00,,,0.00,weatherlink.com 1.10,2013-11-13 12:40:00,
2013-11-13 06:55:00,16.8,15.0,30.73,South,174,0.0,0.0,92,0.00,,,0.00,weatherlink.com 1.10,2013-11-13 12:55:00,
2013-11-13 07:10:00,16.8,15.0,30.73,South,173,0.0,0.0,92,0.00,,,0.00,weatherlink.com 1.10,2013-11-13 13:10:00,
2013-11-13 07:25:00,17.4,16.0,30.73,South,173,0.0,0.0,92,0.00,,,0.00,weatherlink.com 1.10,2013-11-13 13:25:00,
2013-11-13 07:40:00,18.1,16.0,30.73,South,173,0.0,0.0,92,0.00,,,0.00,weatherlink.com 1.10,2013-11-13 13:40:00,
2013-11-13 07:55:00,19.4,18.0,30.73,South,173,0.0,0.0,93,0.00,,,0.00,weatherlink.com 1.10,2013-11-13 13:55:00,
2013-11-13 08:10:00,21.6,20.0,30.73,South,173,0.0,0.0,93,0.00,,,0.00,weatherlink.com 1.10,2013-11-13 14:10:00,
2013-11-13 08:25:00,26.2,25.0,30.73,South,173,0.0,0.0,93,0.00,,,0.00,weatherlink.com 1.10,2013-11-13 14:25:00,
2013-11-13 08:40:00,30.0,25.0,30.73,SE,145,2.0,2.0,82,0.00,,,0.00,weatherlink.com 1.10,2013-11-13 14:40:00,
2013-11-13 08:55:00,32.6,23.0,30.73,SE,132,0.0,5.0,69,0.00,,,0.00,weatherlink.com 1.10,2013-11-13 14:55:00,
2013-11-13 09:10:00,34.1,25.0,30.73,ENE,76,0.0,3.0,69,0.00,,,0.00,weatherlink.com 1.10,2013-11-13 15:10:00,
2013-11-13 09:25:00,35.5,25.0,30.73,SE,142,0.0,4.0,66,0.00,,,0.00,weatherlink.com 1.10,2013-11-13 15:25:00,
2013-11-13 09:40:00,36.5,26.0,30.72,SSE,164,1.0,6.0,66,0.00,,,0.00,weatherlink.com 1.10,2013-11-13 15:40:00,
2013-11-13 09:55:00,37.7,26.0,30.72,SSE,161,4.0,10.0,63,0.00,,,0.00,weatherlink.com 1.10,2013-11-13 15:55:00,
2013-11-13 10:11:00,38.9,25.0,30.71,SE,139,6.0,11.0,58,0.00,,,0.00,weatherlink.com 1.10,2013-11-13 16:11:00,
2013-11-13 10:26:00,40.1,25.0,30.71,South,187,2.0,9.0,55,0.00,,,0.00,weatherlink.com 1.10,2013-11-13 16:26:00,
2013-11-13 10:41:00,40.6,25.0,30.70,SW,223,9.0,11.0,55,0.00,,,0.00,weatherlink.com 1.10,2013-11-13 16:41:00,
2013-11-13 10:56:00,41.1,25.0,30.70,SE,146,3.0,9.0,53,0.00,,,0.00,weatherlink.com 1.10,2013-11-13 16:56:00,
2013-11-13 11:11:00,42.2,25.0,30.69,SW,215,0.0,10.0,51,0.00,,,0.00,weatherlink.com 1.10,2013-11-13 17:11:00,
2013-11-13 11:26:00,42.6,25.0,30.68,West,261,0.0,9.0,50,0.00,,,0.00,weatherlink.com 1.10,2013-11-13 17:26:00,
2013-11-13 11:41:00,44.5,24.0,30.66,SW,234,1.0,9.0,45,0.00,,,0.00,weatherlink.com 1.10,2013-11-13 17:41:00,
2013-11-13 11:56:00,44.9,24.0,30.65,SW,219,5.0,8.0,44,0.00,,,0.00,weatherlink.com 1.10,2013-11-13 17:56:00,
2013-11-13 12:11:00,45.5,25.0,30.64,WNW,289,0.0,7.0,45,0.00,,,0.00,weatherlink.com 1.10,2013-11-13 18:11:00,
2013-11-13 12:26:00,45.9,25.0,30.63,SW,232,0.0,7.0,44,0.00,,,0.00,weatherlink.com 1.10,2013-11-13 18:26:00,
2013-11-13 12:42:00,46.9,25.0,30.62,SSW,213,7.0,8.0,42,0.00,,,0.00,weatherlink.com 1.10,2013-11-13 18:42:00,
2013-11-13 12:56:00,48.1,25.0,30.61,WSW,244,2.0,8.0,41,0.00,,,0.00,weatherlink.com 1.10,2013-11-13 18:56:00,
2013-11-13 13:11:00,48.6,24.0,30.60,West,263,4.0,7.0,39,0.00,,,0.00,weatherlink.com 1.10,2013-11-13 19:11:00,
2013-11-13 13:26:00,49.3,24.0,30.59,SW,236,1.0,9.0,38,0.00,,,0.00,weatherlink.com 1.10,2013-11-13 19:26:00,
2013-11-13 13:41:00,48.9,25.0,30.58,SSW,202,1.0,6.0,40,0.00,,,0.00,weatherlink.com 1.10,2013-11-13 19:41:00,
2013-11-13 13:56:00,49.8,24.0,30.57,WNW,289,0.0,4.0,37,0.00,,,0.00,weatherlink.com 1.10,2013-11-13 19:56:00,
2013-11-13 14:11:00,50.4,25.0,30.56,SW,217,2.0,7.0,38,0.00,,,0.00,weatherlink.com 1.10,2013-11-13 20:11:00,
2013-11-13 14:27:00,51.0,24.0,30.55,WSW,244,3.0,7.0,35,0.00,,,0.00,weatherlink.com 1.10,2013-11-13 20:27:00,
2013-11-13 14:42:00,50.9,24.0,30.54,SSE,153,4.0,9.0,35,0.00,,,0.00,weatherlink.com 1.10,2013-11-13 20:42:00,
2013-11-13 14:57:00,51.4,24.0,30.53,ESE,111,0.0,7.0,34,0.00,,,0.00,weatherlink.com 1.10,2013-11-13 20:57:00,
2013-11-13 15:12:00,52.0,24.0,30.53,ESE,118,1.0,6.0,34,0.00,,,0.00,weatherlink.com 1.10,2013-11-13 21:12:00,
2013-11-13 15:27:00,52.2,24.0,30.52,SSW,203,6.0,6.0,34,0.00,,,0.00,weatherlink.com 1.10,2013-11-13 21:27:00,
2013-11-13 15:42:00,52.1,25.0,30.52,SE,131,1.0,7.0,35,0.00,,,0.00,weatherlink.com 1.10,2013-11-13 21:42:00,
2013-11-13 15:57:00,52.0,25.0,30.51,ESE,106,5.0,7.0,35,0.00,,,0.00,weatherlink.com 1.10,2013-11-13 21:57:00,
2013-11-13 16:12:00,51.7,26.0,30.51,SSE,157,0.0,7.0,37,0.00,,,0.00,weatherlink.com 1.10,2013-11-13 22:12:00,
2013-11-13 16:27:00,51.1,25.0,30.51,SSE,150,1.0,5.0,37,0.00,,,0.00,weatherlink.com 1.10,2013-11-13 22:27:00,
2013-11-13 16:42:00,49.6,25.0,30.50,SW,218,3.0,7.0,39,0.00,,,0.00,weatherlink.com 1.10,2013-11-13 22:42:00,
2013-11-13 16:57:00,48.4,25.0,30.49,South,169,3.0,7.0,40,0.00,,,0.00,weatherlink.com 1.10,2013-11-13 22:57:00,
2013-11-13 17:12:00,47.0,26.0,30.49,ESE,109,0.0,7.0,44,0.00,,,0.00,weatherlink.com 1.10,2013-11-13 23:12:00,
2013-11-13 17:27:00,45.6,26.0,30.49,SE,144,1.0,3.0,47,0.00,,,0.00,weatherlink.com 1.10,2013-11-13 23:27:00,
2013-11-13 17:42:00,44.1,26.0,30.48,SE,145,1.0,4.0,49,0.00,,,0.00,weatherlink.com 1.10,2013-11-13 23:42:00,
2013-11-13 17:57:00,42.9,26.0,30.48,SE,134,0.0,3.0,51,0.00,,,0.00,weatherlink.com 1.10,2013-11-13 23:57:00,
2013-11-13 18:12:00,42.2,26.0,30.48,SSE,152,0.0,5.0,52,0.00,,,0.00,weatherlink.com 1.10,2013-11-14 00:12:00,
2013-11-13 18:27:00,41.7,26.0,30.48,SSE,159,2.0,7.0,54,0.00,,,0.00,weatherlink.com 1.10,2013-11-14 00:27:00,
2013-11-13 18:42:00,41.2,26.0,30.48,SSE,150,3.0,6.0,55,0.00,,,0.00,weatherlink.com 1.10,2013-11-14 00:42:00,
2013-11-13 18:57:00,40.7,26.0,30.48,SSE,157,2.0,4.0,56,0.00,,,0.00,weatherlink.com 1.10,2013-11-14 00:57:00,
2013-11-13 19:12:00,40.3,26.0,30.48,SSE,148,2.0,4.0,57,0.00,,,0.00,weatherlink.com 1.10,2013-11-14 01:12:00,
2013-11-13 19:42:00,39.3,26.0,30.48,SSE,156,2.0,5.0,59,0.00,,,0.00,weatherlink.com 1.10,2013-11-14 01:42:00,
2013-11-13 19:57:00,38.9,26.0,30.47,SSE,153,2.0,5.0,60,0.00,,,0.00,weatherlink.com 1.10,2013-11-14 01:57:00,
2013-11-13 20:12:00,39.1,26.0,30.46,SSE,164,1.0,7.0,60,0.00,,,0.00,weatherlink.com 1.10,2013-11-14 02:12:00,
2013-11-13 20:27:00,39.1,26.0,30.46,ESE,115,0.0,8.0,60,0.00,,,0.00,weatherlink.com 1.10,2013-11-14 02:27:00,
2013-11-13 20:42:00,39.1,26.0,30.46,SE,142,2.0,7.0,60,0.00,,,0.00,weatherlink.com 1.10,2013-11-14 02:42:00,
2013-11-13 20:57:00,38.8,26.0,30.46,SSE,168,2.0,4.0,60,0.00,,,0.00,weatherlink.com 1.10,2013-11-14 02:57:00,
2013-11-13 21:12:00,37.9,25.0,30.45,SSW,209,0.0,3.0,61,0.00,,,0.00,weatherlink.com 1.10,2013-11-14 03:12:00,
2013-11-13 21:27:00,36.5,25.0,30.45,SSW,199,0.0,1.0,64,0.00,,,0.00,weatherlink.com 1.10,2013-11-14 03:27:00,
2013-11-13 21:42:00,35.5,25.0,30.45,SSE,150,0.0,2.0,66,0.00,,,0.00,weatherlink.com 1.10,2013-11-14 03:42:00,
2013-11-13 21:57:00,34.8,25.0,30.44,SSE,167,0.0,1.0,68,0.00,,,0.00,weatherlink.com 1.10,2013-11-14 03:57:00,
2013-11-13 22:12:00,33.7,25.0,30.43,WSW,240,0.0,1.0,70,0.00,,,0.00,weatherlink.com 1.10,2013-11-14 04:12:00,
2013-11-13 22:27:00,33.3,25.0,30.43,South,169,1.0,2.0,72,0.00,,,0.00,weatherlink.com 1.10,2013-11-14 04:27:00,
2013-11-13 22:42:00,33.2,25.0,30.42,SE,141,1.0,1.0,72,0.00,,,0.00,weatherlink.com 1.10,2013-11-14 04:42:00,
2013-11-13 22:57:00,33.1,25.0,30.42,SSE,163,0.0,1.0,72,0.00,,,0.00,weatherlink.com 1.10,2013-11-14 04:57:00,
2013-11-13 23:12:00,32.6,25.0,30.42,SSE,158,0.0,1.0,73,0.00,,,0.00,weatherlink.com 1.10,2013-11-14 05:12:00,
2013-11-13 23:27:00,32.5,25.0,30.41,SE,144,0.0,2.0,74,0.00,,,0.00,weatherlink.com 1.10,2013-11-14 05:27:00,
2013-11-13 23:42:00,32.7,25.0,30.41,SE,132,0.0,2.0,74,0.00,,,0.00,weatherlink.com 1.10,2013-11-14 05:42:00,
2013-11-13 23:59:00,32.0,25.0,30.40,SSE,149,0.0,1.0,75,0.00,,,0.00,weatherlink.com 1.10,2013-11-14 05:59:00,